sensor_id;sensor_type;location;lat;lon;timestamp;temperature;humidity
29539;DHT22;16482;51.046;4.498;2022-10-16T00:01:15;20.30;54.80
29539;DHT22;16482;51.046;4.498;2022-10-16T00:03:42;20.30;54.80
29539;DHT22;16482;51.046;4.498;2022-10-16T00:06:09;20.30;54.80
29539;DHT22;16482;51.046;4.498;2022-10-16T00:08:39;20.20;54.70
29539;DHT22;16482;51.046;4.498;2022-10-16T00:11:12;20.30;54.80
29539;DHT22;16482;51.046;4.498;2022-10-16T00:13:40;20.30;54.80
29539;DHT22;16482;51.046;4.498;2022-10-16T00:16:15;20.30;54.80
29539;DHT22;16482;51.046;4.498;2022-10-16T00:18:46;20.30;54.80
29539;DHT22;16482;51.046;4.498;2022-10-16T00:21:21;20.30;54.80
29539;DHT22;16482;51.046;4.498;2022-10-16T00:23:51;20.30;54.80
29539;DHT22;16482;51.046;4.498;2022-10-16T00:26:18;20.30;54.80
29539;DHT22;16482;51.046;4.498;2022-10-16T00:28:48;20.30;54.80
29539;DHT22;16482;51.046;4.498;2022-10-16T00:31:16;20.30;54.80
29539;DHT22;16482;51.046;4.498;2022-10-16T00:33:42;20.30;54.80
29539;DHT22;16482;51.046;4.498;2022-10-16T00:36:10;20.30;54.80
29539;DHT22;16482;51.046;4.498;2022-10-16T00:38:36;20.30;54.80
29539;DHT22;16482;51.046;4.498;2022-10-16T00:41:03;20.30;54.80
29539;DHT22;16482;51.046;4.498;2022-10-16T00:43:34;20.30;54.80
29539;DHT22;16482;51.046;4.498;2022-10-16T00:46:02;20.30;54.80
29539;DHT22;16482;51.046;4.498;2022-10-16T00:48:28;20.30;54.80
29539;DHT22;16482;51.046;4.498;2022-10-16T00:50:56;20.30;54.80
29539;DHT22;16482;51.046;4.498;2022-10-16T00:53:23;20.30;54.80
29539;DHT22;16482;51.046;4.498;2022-10-16T00:55:50;20.30;54.80
29539;DHT22;16482;51.046;4.498;2022-10-16T00:58:16;20.30;54.80
29539;DHT22;16482;51.046;4.498;2022-10-16T01:00:42;20.30;54.80
29539;DHT22;16482;51.046;4.498;2022-10-16T01:03:33;20.30;54.80
29539;DHT22;16482;51.046;4.498;2022-10-16T01:06:24;20.30;55.40
29539;DHT22;16482;51.046;4.498;2022-10-16T01:11:57;20.30;54.80
29539;DHT22;16482;51.046;4.498;2022-10-16T01:14:40;20.30;54.80
29539;DHT22;16482;51.046;4.498;2022-10-16T01:20:14;20.20;54.80
29539;DHT22;16482;51.046;4.498;2022-10-16T01:25:29;20.30;54.90
29539;DHT22;16482;51.046;4.498;2022-10-16T01:27:57;20.30;54.80
29539;DHT22;16482;51.046;4.498;2022-10-16T01:30:27;20.20;54.80
29539;DHT22;16482;51.046;4.498;2022-10-16T01:33:03;20.20;54.80
29539;DHT22;16482;51.046;4.498;2022-10-16T01:35:41;20.20;54.80
29539;DHT22;16482;51.046;4.498;2022-10-16T01:38:15;20.30;54.90
29539;DHT22;16482;51.046;4.498;2022-10-16T01:40:45;20.30;54.90
29539;DHT22;16482;51.046;4.498;2022-10-16T01:43:19;20.20;54.80
29539;DHT22;16482;51.046;4.498;2022-10-16T01:45:46;20.30;54.80
29539;DHT22;16482;51.046;4.498;2022-10-16T01:48:17;20.30;54.80
29539;DHT22;16482;51.046;4.498;2022-10-16T01:50:44;20.20;54.80
29539;DHT22;16482;51.046;4.498;2022-10-16T01:53:15;20.20;54.80
29539;DHT22;16482;51.046;4.498;2022-10-16T01:55:46;20.30;54.80
29539;DHT22;16482;51.046;4.498;2022-10-16T01:58:14;20.20;54.80
29539;DHT22;16482;51.046;4.498;2022-10-16T02:00:43;20.30;54.80
29539;DHT22;16482;51.046;4.498;2022-10-16T02:03:11;20.30;54.80
29539;DHT22;16482;51.046;4.498;2022-10-16T02:05:41;20.30;54.80
29539;DHT22;16482;51.046;4.498;2022-10-16T02:08:08;20.30;54.80
29539;DHT22;16482;51.046;4.498;2022-10-16T02:10:35;20.30;54.80
29539;DHT22;16482;51.046;4.498;2022-10-16T02:13:13;20.20;54.70
29539;DHT22;16482;51.046;4.498;2022-10-16T02:15:44;20.30;54.80
29539;DHT22;16482;51.046;4.498;2022-10-16T02:18:10;20.20;54.70
29539;DHT22;16482;51.046;4.498;2022-10-16T02:23:45;20.30;54.80
29539;DHT22;16482;51.046;4.498;2022-10-16T02:26:27;20.30;54.80
29539;DHT22;16482;51.046;4.498;2022-10-16T02:28:59;20.30;54.80
29539;DHT22;16482;51.046;4.498;2022-10-16T02:31:28;20.30;54.80
29539;DHT22;16482;51.046;4.498;2022-10-16T02:33:58;20.20;54.80
29539;DHT22;16482;51.046;4.498;2022-10-16T02:36:25;20.30;54.90
29539;DHT22;16482;51.046;4.498;2022-10-16T02:38:52;20.30;54.80
29539;DHT22;16482;51.046;4.498;2022-10-16T02:41:20;20.30;54.80
29539;DHT22;16482;51.046;4.498;2022-10-16T02:43:46;20.20;54.80
29539;DHT22;16482;51.046;4.498;2022-10-16T02:46:19;20.20;54.80
29539;DHT22;16482;51.046;4.498;2022-10-16T02:48:45;20.30;54.90
29539;DHT22;16482;51.046;4.498;2022-10-16T02:51:16;20.20;54.80
29539;DHT22;16482;51.046;4.498;2022-10-16T02:53:49;20.20;54.80
29539;DHT22;16482;51.046;4.498;2022-10-16T02:56:15;20.30;55.00
29539;DHT22;16482;51.046;4.498;2022-10-16T02:58:41;20.20;54.80
29539;DHT22;16482;51.046;4.498;2022-10-16T03:01:10;20.30;55.00
29539;DHT22;16482;51.046;4.498;2022-10-16T03:03:38;20.30;54.90
29539;DHT22;16482;51.046;4.498;2022-10-16T03:06:04;20.20;54.80
29539;DHT22;16482;51.046;4.498;2022-10-16T03:08:31;20.30;54.90
29539;DHT22;16482;51.046;4.498;2022-10-16T03:10:56;20.30;54.90
29539;DHT22;16482;51.046;4.498;2022-10-16T03:13:22;20.20;54.80
29539;DHT22;16482;51.046;4.498;2022-10-16T03:15:48;20.30;54.90
29539;DHT22;16482;51.046;4.498;2022-10-16T03:18:15;20.30;54.90
29539;DHT22;16482;51.046;4.498;2022-10-16T03:20:42;20.30;54.90
29539;DHT22;16482;51.046;4.498;2022-10-16T03:23:07;20.30;54.90
29539;DHT22;16482;51.046;4.498;2022-10-16T03:25:33;20.30;54.90
29539;DHT22;16482;51.046;4.498;2022-10-16T03:27:59;20.30;54.90
29539;DHT22;16482;51.046;4.498;2022-10-16T03:30:25;20.30;54.90
29539;DHT22;16482;51.046;4.498;2022-10-16T03:32:51;20.30;54.90
29539;DHT22;16482;51.046;4.498;2022-10-16T03:35:25;20.30;54.90
29539;DHT22;16482;51.046;4.498;2022-10-16T03:37:51;20.20;55.00
29539;DHT22;16482;51.046;4.498;2022-10-16T03:40:26;20.20;54.90
29539;DHT22;16482;51.046;4.498;2022-10-16T03:42:55;20.30;55.00
29539;DHT22;16482;51.046;4.498;2022-10-16T03:45:24;20.20;54.90
29539;DHT22;16482;51.046;4.498;2022-10-16T03:47:51;20.20;54.90
29539;DHT22;16482;51.046;4.498;2022-10-16T03:50:17;20.20;55.00
29539;DHT22;16482;51.046;4.498;2022-10-16T03:52:43;20.20;55.50
29539;DHT22;16482;51.046;4.498;2022-10-16T03:55:09;20.20;54.90
29539;DHT22;16482;51.046;4.498;2022-10-16T03:57:35;20.20;55.00
29539;DHT22;16482;51.046;4.498;2022-10-16T04:00:00;20.30;55.00
29539;DHT22;16482;51.046;4.498;2022-10-16T04:02:26;20.30;55.00
29539;DHT22;16482;51.046;4.498;2022-10-16T04:04:52;20.20;55.00
29539;DHT22;16482;51.046;4.498;2022-10-16T04:07:18;20.20;55.00
29539;DHT22;16482;51.046;4.498;2022-10-16T04:09:43;20.20;55.00
29539;DHT22;16482;51.046;4.498;2022-10-16T04:12:10;20.20;55.00
29539;DHT22;16482;51.046;4.498;2022-10-16T04:14:35;20.20;55.00
29539;DHT22;16482;51.046;4.498;2022-10-16T04:17:01;20.20;55.00
29539;DHT22;16482;51.046;4.498;2022-10-16T04:19:27;20.20;55.00
29539;DHT22;16482;51.046;4.498;2022-10-16T04:21:53;20.20;55.00
29539;DHT22;16482;51.046;4.498;2022-10-16T04:24:18;20.20;55.00
29539;DHT22;16482;51.046;4.498;2022-10-16T04:26:44;20.30;55.00
29539;DHT22;16482;51.046;4.498;2022-10-16T04:29:10;20.20;55.00
29539;DHT22;16482;51.046;4.498;2022-10-16T04:31:36;20.20;55.00
29539;DHT22;16482;51.046;4.498;2022-10-16T04:34:02;20.20;55.00
29539;DHT22;16482;51.046;4.498;2022-10-16T04:36:28;20.20;55.00
29539;DHT22;16482;51.046;4.498;2022-10-16T04:38:53;20.20;55.10
29539;DHT22;16482;51.046;4.498;2022-10-16T04:41:19;20.20;55.00
29539;DHT22;16482;51.046;4.498;2022-10-16T04:43:47;20.20;55.10
29539;DHT22;16482;51.046;4.498;2022-10-16T04:46:13;20.20;55.10
29539;DHT22;16482;51.046;4.498;2022-10-16T04:48:39;20.20;55.10
29539;DHT22;16482;51.046;4.498;2022-10-16T04:51:05;20.20;55.10
29539;DHT22;16482;51.046;4.498;2022-10-16T04:53:30;20.20;55.10
29539;DHT22;16482;51.046;4.498;2022-10-16T04:55:56;20.20;55.10
29539;DHT22;16482;51.046;4.498;2022-10-16T04:58:22;20.30;55.20
29539;DHT22;16482;51.046;4.498;2022-10-16T05:00:48;20.20;55.10
29539;DHT22;16482;51.046;4.498;2022-10-16T05:03:16;20.20;55.10
29539;DHT22;16482;51.046;4.498;2022-10-16T05:05:44;20.20;55.10
29539;DHT22;16482;51.046;4.498;2022-10-16T05:08:12;20.20;55.10
29539;DHT22;16482;51.046;4.498;2022-10-16T05:10:40;20.20;55.10
29539;DHT22;16482;51.046;4.498;2022-10-16T05:13:05;20.20;55.10
29539;DHT22;16482;51.046;4.498;2022-10-16T05:15:31;20.20;55.10
29539;DHT22;16482;51.046;4.498;2022-10-16T05:17:57;20.20;55.10
29539;DHT22;16482;51.046;4.498;2022-10-16T05:20:26;20.20;55.10
29539;DHT22;16482;51.046;4.498;2022-10-16T05:22:59;20.20;55.10
29539;DHT22;16482;51.046;4.498;2022-10-16T05:25:25;20.20;55.10
29539;DHT22;16482;51.046;4.498;2022-10-16T05:27:51;20.20;55.10
29539;DHT22;16482;51.046;4.498;2022-10-16T05:30:18;20.20;55.10
29539;DHT22;16482;51.046;4.498;2022-10-16T05:32:50;20.20;55.10
29539;DHT22;16482;51.046;4.498;2022-10-16T05:35:27;20.30;55.10
29539;DHT22;16482;51.046;4.498;2022-10-16T05:37:55;20.20;55.10
29539;DHT22;16482;51.046;4.498;2022-10-16T05:40:21;20.20;55.10
29539;DHT22;16482;51.046;4.498;2022-10-16T05:42:46;20.20;55.10
29539;DHT22;16482;51.046;4.498;2022-10-16T05:45:12;20.20;55.10
29539;DHT22;16482;51.046;4.498;2022-10-16T05:47:38;20.20;55.10
29539;DHT22;16482;51.046;4.498;2022-10-16T05:50:04;20.20;55.10
29539;DHT22;16482;51.046;4.498;2022-10-16T05:52:30;20.20;55.10
29539;DHT22;16482;51.046;4.498;2022-10-16T05:54:55;20.20;55.10
29539;DHT22;16482;51.046;4.498;2022-10-16T05:57:21;20.20;55.10
29539;DHT22;16482;51.046;4.498;2022-10-16T05:59:47;20.20;55.20
29539;DHT22;16482;51.046;4.498;2022-10-16T06:02:16;20.20;55.10
29539;DHT22;16482;51.046;4.498;2022-10-16T06:04:42;20.20;55.10
29539;DHT22;16482;51.046;4.498;2022-10-16T06:07:10;20.20;55.10
29539;DHT22;16482;51.046;4.498;2022-10-16T06:09:36;20.20;55.10
29539;DHT22;16482;51.046;4.498;2022-10-16T06:12:02;20.20;55.20
29539;DHT22;16482;51.046;4.498;2022-10-16T06:14:28;20.20;55.20
29539;DHT22;16482;51.046;4.498;2022-10-16T06:16:54;20.20;55.20
29539;DHT22;16482;51.046;4.498;2022-10-16T06:19:19;20.20;55.10
29539;DHT22;16482;51.046;4.498;2022-10-16T06:21:45;20.20;55.20
29539;DHT22;16482;51.046;4.498;2022-10-16T06:24:11;20.20;55.20
29539;DHT22;16482;51.046;4.498;2022-10-16T06:26:37;20.20;55.20
29539;DHT22;16482;51.046;4.498;2022-10-16T06:29:03;20.20;55.20
29539;DHT22;16482;51.046;4.498;2022-10-16T06:31:29;20.20;55.20
29539;DHT22;16482;51.046;4.498;2022-10-16T06:33:59;20.20;55.20
29539;DHT22;16482;51.046;4.498;2022-10-16T06:36:25;20.20;55.80
29539;DHT22;16482;51.046;4.498;2022-10-16T06:38:51;20.20;55.20
29539;DHT22;16482;51.046;4.498;2022-10-16T06:41:19;20.20;55.20
29539;DHT22;16482;51.046;4.498;2022-10-16T06:43:46;20.20;55.30
29539;DHT22;16482;51.046;4.498;2022-10-16T06:46:16;20.20;55.30
29539;DHT22;16482;51.046;4.498;2022-10-16T06:48:42;20.20;55.30
29539;DHT22;16482;51.046;4.498;2022-10-16T06:51:16;20.30;55.20
29539;DHT22;16482;51.046;4.498;2022-10-16T06:53:46;20.30;55.10
29539;DHT22;16482;51.046;4.498;2022-10-16T06:56:21;20.30;55.10
29539;DHT22;16482;51.046;4.498;2022-10-16T06:58:48;20.30;55.10
29539;DHT22;16482;51.046;4.498;2022-10-16T07:01:16;20.30;55.00
29539;DHT22;16482;51.046;4.498;2022-10-16T07:03:46;20.40;54.90
29539;DHT22;16482;51.046;4.498;2022-10-16T07:06:17;20.40;55.00
29539;DHT22;16482;51.046;4.498;2022-10-16T07:08:46;20.40;54.90
29539;DHT22;16482;51.046;4.498;2022-10-16T07:11:21;20.40;55.00
29539;DHT22;16482;51.046;4.498;2022-10-16T07:13:47;20.40;55.00
29539;DHT22;16482;51.046;4.498;2022-10-16T07:16:19;20.40;54.90
29539;DHT22;16482;51.046;4.498;2022-10-16T07:18:47;20.40;54.90
29539;DHT22;16482;51.046;4.498;2022-10-16T07:21:17;20.40;54.90
29539;DHT22;16482;51.046;4.498;2022-10-16T07:23:43;20.40;54.90
29539;DHT22;16482;51.046;4.498;2022-10-16T07:26:10;20.40;54.90
29539;DHT22;16482;51.046;4.498;2022-10-16T07:28:36;20.40;54.90
29539;DHT22;16482;51.046;4.498;2022-10-16T07:31:03;20.50;54.80
29539;DHT22;16482;51.046;4.498;2022-10-16T07:33:30;20.50;54.80
29539;DHT22;16482;51.046;4.498;2022-10-16T07:35:56;20.60;54.80
29539;DHT22;16482;51.046;4.498;2022-10-16T07:38:23;20.60;54.80
29539;DHT22;16482;51.046;4.498;2022-10-16T07:40:56;20.60;54.60
29539;DHT22;16482;51.046;4.498;2022-10-16T07:43:22;20.60;54.60
29539;DHT22;16482;51.046;4.498;2022-10-16T07:45:49;20.60;54.50
29539;DHT22;16482;51.046;4.498;2022-10-16T07:48:15;20.70;54.60
29539;DHT22;16482;51.046;4.498;2022-10-16T07:50:41;20.70;54.50
29539;DHT22;16482;51.046;4.498;2022-10-16T07:53:07;20.70;54.50
29539;DHT22;16482;51.046;4.498;2022-10-16T07:55:33;20.70;54.50
29539;DHT22;16482;51.046;4.498;2022-10-16T07:57:59;20.70;54.40
29539;DHT22;16482;51.046;4.498;2022-10-16T08:00:28;20.70;54.30
29539;DHT22;16482;51.046;4.498;2022-10-16T08:03:01;20.70;54.30
29539;DHT22;16482;51.046;4.498;2022-10-16T08:05:28;20.70;54.30
29539;DHT22;16482;51.046;4.498;2022-10-16T08:07:57;20.70;54.20
29539;DHT22;16482;51.046;4.498;2022-10-16T08:10:27;20.70;54.30
29539;DHT22;16482;51.046;4.498;2022-10-16T08:12:56;20.80;54.30
29539;DHT22;16482;51.046;4.498;2022-10-16T08:15:22;20.70;54.30
29539;DHT22;16482;51.046;4.498;2022-10-16T08:18:14;20.70;54.30
29539;DHT22;16482;51.046;4.498;2022-10-16T08:20:41;20.80;54.30
29539;DHT22;16482;51.046;4.498;2022-10-16T08:23:07;20.70;54.20
29539;DHT22;16482;51.046;4.498;2022-10-16T08:25:35;20.70;54.60
29539;DHT22;16482;51.046;4.498;2022-10-16T08:28:07;20.80;54.30
29539;DHT22;16482;51.046;4.498;2022-10-16T08:30:33;20.80;54.30
29539;DHT22;16482;51.046;4.498;2022-10-16T08:32:59;20.80;54.30
29539;DHT22;16482;51.046;4.498;2022-10-16T08:35:28;20.80;54.30
29539;DHT22;16482;51.046;4.498;2022-10-16T08:37:54;20.70;54.30
29539;DHT22;16482;51.046;4.498;2022-10-16T08:40:24;20.70;54.30
29539;DHT22;16482;51.046;4.498;2022-10-16T08:49:05;20.70;54.20
29539;DHT22;16482;51.046;4.498;2022-10-16T08:51:36;20.80;54.40
29539;DHT22;16482;51.046;4.498;2022-10-16T08:56:55;20.70;54.40
29539;DHT22;16482;51.046;4.498;2022-10-16T08:59:22;20.70;54.40
29539;DHT22;16482;51.046;4.498;2022-10-16T09:01:50;20.70;54.50
29539;DHT22;16482;51.046;4.498;2022-10-16T09:04:50;20.70;54.40
29539;DHT22;16482;51.046;4.498;2022-10-16T09:07:41;20.70;54.40
29539;DHT22;16482;51.046;4.498;2022-10-16T09:10:33;20.70;54.40
29539;DHT22;16482;51.046;4.498;2022-10-16T09:21:09;20.70;54.50
29539;DHT22;16482;51.046;4.498;2022-10-16T09:23:49;20.70;54.50
29539;DHT22;16482;51.046;4.498;2022-10-16T09:26:16;20.70;54.50
29539;DHT22;16482;51.046;4.498;2022-10-16T09:28:46;20.70;54.50
29539;DHT22;16482;51.046;4.498;2022-10-16T09:31:20;20.70;54.60
29539;DHT22;16482;51.046;4.498;2022-10-16T09:33:50;20.70;54.60
29539;DHT22;16482;51.046;4.498;2022-10-16T09:36:17;20.70;54.60
29539;DHT22;16482;51.046;4.498;2022-10-16T09:38:46;20.70;54.60
29539;DHT22;16482;51.046;4.498;2022-10-16T09:41:21;20.70;54.60
29539;DHT22;16482;51.046;4.498;2022-10-16T09:43:57;20.70;54.60
29539;DHT22;16482;51.046;4.498;2022-10-16T09:46:35;20.70;54.50
29539;DHT22;16482;51.046;4.498;2022-10-16T09:49:25;20.70;54.60
29539;DHT22;16482;51.046;4.498;2022-10-16T09:52:09;20.70;54.50
29539;DHT22;16482;51.046;4.498;2022-10-16T09:54:36;20.70;54.60
29539;DHT22;16482;51.046;4.498;2022-10-16T09:57:07;20.70;54.60
29539;DHT22;16482;51.046;4.498;2022-10-16T09:59:44;20.60;54.60
29539;DHT22;16482;51.046;4.498;2022-10-16T10:02:13;20.70;54.60
29539;DHT22;16482;51.046;4.498;2022-10-16T10:04:51;20.70;54.60
29539;DHT22;16482;51.046;4.498;2022-10-16T10:07:24;20.70;54.60
29539;DHT22;16482;51.046;4.498;2022-10-16T10:09:51;20.70;54.60
29539;DHT22;16482;51.046;4.498;2022-10-16T10:12:20;20.70;54.60
29539;DHT22;16482;51.046;4.498;2022-10-16T10:15:26;20.70;54.60
29539;DHT22;16482;51.046;4.498;2022-10-16T10:17:53;20.70;54.70
29539;DHT22;16482;51.046;4.498;2022-10-16T10:20:30;20.70;54.70
29539;DHT22;16482;51.046;4.498;2022-10-16T10:23:00;20.70;54.80
29539;DHT22;16482;51.046;4.498;2022-10-16T10:25:51;20.60;54.60
29539;DHT22;16482;51.046;4.498;2022-10-16T10:37:04;20.60;54.70
29539;DHT22;16482;51.046;4.498;2022-10-16T10:39:50;20.70;54.70
29539;DHT22;16482;51.046;4.498;2022-10-16T10:42:51;20.70;54.80
29539;DHT22;16482;51.046;4.498;2022-10-16T10:45:38;20.70;54.70
29539;DHT22;16482;51.046;4.498;2022-10-16T10:51:13;20.60;54.70
29539;DHT22;16482;51.046;4.498;2022-10-16T10:54:00;20.60;54.70
29539;DHT22;16482;51.046;4.498;2022-10-16T10:56:57;20.60;54.70
29539;DHT22;16482;51.046;4.498;2022-10-16T11:08:01;20.60;54.70
29539;DHT22;16482;51.046;4.498;2022-10-16T11:15:58;20.70;54.70
29539;DHT22;16482;51.046;4.498;2022-10-16T11:18:37;20.70;54.70
29539;DHT22;16482;51.046;4.498;2022-10-16T11:21:11;20.70;54.60
29539;DHT22;16482;51.046;4.498;2022-10-16T11:24:01;20.70;54.60
29539;DHT22;16482;51.046;4.498;2022-10-16T11:26:34;20.70;54.60
29539;DHT22;16482;51.046;4.498;2022-10-16T11:29:02;20.70;54.50
29539;DHT22;16482;51.046;4.498;2022-10-16T11:31:39;20.70;54.50
29539;DHT22;16482;51.046;4.498;2022-10-16T11:34:15;20.70;54.50
29539;DHT22;16482;51.046;4.498;2022-10-16T11:39:27;20.70;54.50
29539;DHT22;16482;51.046;4.498;2022-10-16T11:42:02;20.70;54.50
29539;DHT22;16482;51.046;4.498;2022-10-16T11:49:59;20.60;54.40
29539;DHT22;16482;51.046;4.498;2022-10-16T11:55:23;20.70;54.50
29539;DHT22;16482;51.046;4.498;2022-10-16T11:58:36;20.70;54.50
29539;DHT22;16482;51.046;4.498;2022-10-16T12:03:41;20.60;54.70
29539;DHT22;16482;51.046;4.498;2022-10-16T12:09:01;20.60;54.60
29539;DHT22;16482;51.046;4.498;2022-10-16T12:11:38;20.60;54.50
29539;DHT22;16482;51.046;4.498;2022-10-16T12:16:51;20.60;54.50
29539;DHT22;16482;51.046;4.498;2022-10-16T12:19:17;20.70;54.50
29539;DHT22;16482;51.046;4.498;2022-10-16T12:21:44;20.70;54.50
29539;DHT22;16482;51.046;4.498;2022-10-16T12:24:36;20.70;54.50
29539;DHT22;16482;51.046;4.498;2022-10-16T12:27:17;20.70;54.50
29539;DHT22;16482;51.046;4.498;2022-10-16T12:29:45;20.70;54.50
29539;DHT22;16482;51.046;4.498;2022-10-16T12:32:31;20.70;54.50
29539;DHT22;16482;51.046;4.498;2022-10-16T12:34:58;20.70;54.40
29539;DHT22;16482;51.046;4.498;2022-10-16T12:37:26;20.70;54.40
29539;DHT22;16482;51.046;4.498;2022-10-16T12:39:54;20.70;54.50
29539;DHT22;16482;51.046;4.498;2022-10-16T12:42:30;20.70;54.40
29539;DHT22;16482;51.046;4.498;2022-10-16T12:44:56;20.70;54.30
29539;DHT22;16482;51.046;4.498;2022-10-16T12:47:36;20.70;54.30
29539;DHT22;16482;51.046;4.498;2022-10-16T12:50:03;20.70;54.30
29539;DHT22;16482;51.046;4.498;2022-10-16T12:52:38;20.70;54.30
29539;DHT22;16482;51.046;4.498;2022-10-16T12:55:11;20.70;54.30
29539;DHT22;16482;51.046;4.498;2022-10-16T12:58:00;20.70;54.30
29539;DHT22;16482;51.046;4.498;2022-10-16T13:08:53;20.70;54.30
29539;DHT22;16482;51.046;4.498;2022-10-16T13:16:54;20.70;54.30
29539;DHT22;16482;51.046;4.498;2022-10-16T13:19:45;20.70;54.30
29539;DHT22;16482;51.046;4.498;2022-10-16T13:22:21;20.70;54.30
29539;DHT22;16482;51.046;4.498;2022-10-16T13:27:58;20.70;54.30
29539;DHT22;16482;51.046;4.498;2022-10-16T13:30:29;20.70;54.30
29539;DHT22;16482;51.046;4.498;2022-10-16T13:35:51;20.60;54.20
29539;DHT22;16482;51.046;4.498;2022-10-16T13:38:22;20.60;54.20
29539;DHT22;16482;51.046;4.498;2022-10-16T13:40:55;20.70;54.30
29539;DHT22;16482;51.046;4.498;2022-10-16T13:43:34;20.60;54.20
29539;DHT22;16482;51.046;4.498;2022-10-16T13:46:05;20.70;54.30
29539;DHT22;16482;51.046;4.498;2022-10-16T13:48:33;20.70;54.30
29539;DHT22;16482;51.046;4.498;2022-10-16T13:51:11;20.70;54.30
29539;DHT22;16482;51.046;4.498;2022-10-16T13:53:37;20.70;54.30
29539;DHT22;16482;51.046;4.498;2022-10-16T13:56:10;20.70;54.40
29539;DHT22;16482;51.046;4.498;2022-10-16T13:58:36;20.70;54.30
29539;DHT22;16482;51.046;4.498;2022-10-16T14:01:05;20.60;54.20
29539;DHT22;16482;51.046;4.498;2022-10-16T14:03:32;20.70;54.30
29539;DHT22;16482;51.046;4.498;2022-10-16T14:06:04;20.70;54.30
29539;DHT22;16482;51.046;4.498;2022-10-16T14:08:32;20.70;54.30
29539;DHT22;16482;51.046;4.498;2022-10-16T14:10:59;20.70;54.20
29539;DHT22;16482;51.046;4.498;2022-10-16T14:15:55;20.70;54.30
29539;DHT22;16482;51.046;4.498;2022-10-16T14:18:26;20.60;54.20
29539;DHT22;16482;51.046;4.498;2022-10-16T14:20:53;20.70;54.30
29539;DHT22;16482;51.046;4.498;2022-10-16T14:23:35;20.70;54.20
29539;DHT22;16482;51.046;4.498;2022-10-16T14:28:39;20.60;54.20
29539;DHT22;16482;51.046;4.498;2022-10-16T14:31:29;20.60;54.20
29539;DHT22;16482;51.046;4.498;2022-10-16T14:33:55;20.70;54.20
29539;DHT22;16482;51.046;4.498;2022-10-16T14:36:22;20.70;54.20
29539;DHT22;16482;51.046;4.498;2022-10-16T14:39:02;20.70;54.20
29539;DHT22;16482;51.046;4.498;2022-10-16T14:41:31;20.70;54.20
29539;DHT22;16482;51.046;4.498;2022-10-16T14:44:01;20.70;54.20
29539;DHT22;16482;51.046;4.498;2022-10-16T14:46:39;20.70;54.20
29539;DHT22;16482;51.046;4.498;2022-10-16T14:51:34;20.70;54.20
29539;DHT22;16482;51.046;4.498;2022-10-16T14:54:00;20.70;54.20
29539;DHT22;16482;51.046;4.498;2022-10-16T14:59:38;20.60;54.20
29539;DHT22;16482;51.046;4.498;2022-10-16T15:04:46;20.70;54.30
29539;DHT22;16482;51.046;4.498;2022-10-16T15:07:12;20.60;54.20
29539;DHT22;16482;51.046;4.498;2022-10-16T15:09:38;20.60;54.30
29539;DHT22;16482;51.046;4.498;2022-10-16T15:12:06;20.60;54.20
29539;DHT22;16482;51.046;4.498;2022-10-16T15:14:32;20.60;54.30
29539;DHT22;16482;51.046;4.498;2022-10-16T15:17:11;20.60;54.30
29539;DHT22;16482;51.046;4.498;2022-10-16T15:19:38;20.60;54.20
29539;DHT22;16482;51.046;4.498;2022-10-16T15:22:06;20.60;54.30
29539;DHT22;16482;51.046;4.498;2022-10-16T15:24:36;20.70;54.30
29539;DHT22;16482;51.046;4.498;2022-10-16T15:27:02;20.70;54.30
29539;DHT22;16482;51.046;4.498;2022-10-16T15:29:28;20.60;54.20
29539;DHT22;16482;51.046;4.498;2022-10-16T15:31:56;20.60;54.20
29539;DHT22;16482;51.046;4.498;2022-10-16T15:34:25;20.60;54.20
29539;DHT22;16482;51.046;4.498;2022-10-16T15:36:50;20.60;54.30
29539;DHT22;16482;51.046;4.498;2022-10-16T15:39:18;20.70;54.30
29539;DHT22;16482;51.046;4.498;2022-10-16T15:41:46;20.60;54.20
29539;DHT22;16482;51.046;4.498;2022-10-16T15:44:16;20.60;54.20
29539;DHT22;16482;51.046;4.498;2022-10-16T15:46:42;20.70;54.30
29539;DHT22;16482;51.046;4.498;2022-10-16T15:49:11;20.60;54.20
29539;DHT22;16482;51.046;4.498;2022-10-16T15:51:41;20.60;54.20
29539;DHT22;16482;51.046;4.498;2022-10-16T15:54:08;20.60;54.30
29539;DHT22;16482;51.046;4.498;2022-10-16T15:56:34;20.60;54.30
29539;DHT22;16482;51.046;4.498;2022-10-16T15:59:02;20.60;54.30
29539;DHT22;16482;51.046;4.498;2022-10-16T16:01:34;20.60;54.30
29539;DHT22;16482;51.046;4.498;2022-10-16T16:04:00;20.60;54.30
29539;DHT22;16482;51.046;4.498;2022-10-16T16:06:26;20.60;54.40
29539;DHT22;16482;51.046;4.498;2022-10-16T16:08:55;20.60;54.30
29539;DHT22;16482;51.046;4.498;2022-10-16T16:11:21;20.60;54.40
29539;DHT22;16482;51.046;4.498;2022-10-16T16:13:49;20.60;54.40
29539;DHT22;16482;51.046;4.498;2022-10-16T16:16:17;20.60;54.40
29539;DHT22;16482;51.046;4.498;2022-10-16T16:18:45;20.60;54.40
29539;DHT22;16482;51.046;4.498;2022-10-16T16:21:17;20.60;54.50
29539;DHT22;16482;51.046;4.498;2022-10-16T16:23:43;20.60;54.50
29539;DHT22;16482;51.046;4.498;2022-10-16T16:26:14;20.60;54.50
29539;DHT22;16482;51.046;4.498;2022-10-16T16:28:43;20.60;54.40
29539;DHT22;16482;51.046;4.498;2022-10-16T16:31:09;20.60;54.50
29539;DHT22;16482;51.046;4.498;2022-10-16T16:33:35;20.60;54.50
29539;DHT22;16482;51.046;4.498;2022-10-16T16:36:04;20.60;54.60
29539;DHT22;16482;51.046;4.498;2022-10-16T16:38:32;20.60;54.50
29539;DHT22;16482;51.046;4.498;2022-10-16T16:40:58;20.60;54.90
29539;DHT22;16482;51.046;4.498;2022-10-16T16:43:27;20.60;54.50
29539;DHT22;16482;51.046;4.498;2022-10-16T16:45:53;20.60;54.60
29539;DHT22;16482;51.046;4.498;2022-10-16T16:48:20;20.60;54.60
29539;DHT22;16482;51.046;4.498;2022-10-16T16:50:46;20.60;54.60
29539;DHT22;16482;51.046;4.498;2022-10-16T16:53:12;20.60;54.60
29539;DHT22;16482;51.046;4.498;2022-10-16T16:55:38;20.60;54.70
29539;DHT22;16482;51.046;4.498;2022-10-16T16:58:04;20.60;54.80
29539;DHT22;16482;51.046;4.498;2022-10-16T17:00:32;20.50;54.70
29539;DHT22;16482;51.046;4.498;2022-10-16T17:02:58;20.50;54.80
29539;DHT22;16482;51.046;4.498;2022-10-16T17:05:24;20.50;55.00
29539;DHT22;16482;51.046;4.498;2022-10-16T17:07:50;20.60;54.90
29539;DHT22;16482;51.046;4.498;2022-10-16T17:10:16;20.60;54.80
29539;DHT22;16482;51.046;4.498;2022-10-16T17:12:42;20.60;54.90
29539;DHT22;16482;51.046;4.498;2022-10-16T17:15:08;20.60;54.90
29539;DHT22;16482;51.046;4.498;2022-10-16T17:17:34;20.60;55.00
29539;DHT22;16482;51.046;4.498;2022-10-16T17:20:00;20.60;55.00
29539;DHT22;16482;51.046;4.498;2022-10-16T17:22:25;20.60;55.00
29539;DHT22;16482;51.046;4.498;2022-10-16T17:24:51;20.50;55.00
29539;DHT22;16482;51.046;4.498;2022-10-16T17:27:19;20.50;55.00
29539;DHT22;16482;51.046;4.498;2022-10-16T17:29:49;20.50;55.00
29539;DHT22;16482;51.046;4.498;2022-10-16T17:32:14;20.50;55.00
29539;DHT22;16482;51.046;4.498;2022-10-16T17:34:40;20.60;55.10